MOL Benefactor — VRPJ6 — position and weather

sailwx.info

Track history (hours):
 
Tides and Currents Weather Stations Pressure Air Temp Water Temp Dewpoint Dewpoint Depression Visibility Wind Speed Wind Dir Waves Ship Positions

MOL Benefactor

Last reported at 2018-Feb-24 02:40 UTC. Time now 2018-Feb-25 11:35 UTC.
Position N 32°50' W 079°54'.

Length 337 m; draft 11.4 m.

Type: Ship (hazmat cat A). MMSI: 477307900.

Date/timePositionNaut miles runAvg speedWind from/ knotsBaromVisibWave heightAir tempDewpointWater temp
2018-Feb-24 02:40N 32°50' W 079°54'69 3.6
2018-Feb-23 07:43N 31°42' W 080°05'22 0.5
2018-Feb-21 07:29N 31°41' W 080°31'1014.7
2018-Feb-21 06:49N 31°51' W 080°29'3 9.5
2018-Feb-21 06:30N 31°53' W 080°31'510.3
2018-Feb-21 06:00N 31°56' W 080°36'5 9.5
2018-Feb-21 05:30N 31°58' W 080°41'611.8
2018-Feb-21 05:00N 32°00' W 080°47'612.4
2018-Feb-21 04:30N 32°02' W 080°54'510.8
2018-Feb-21 04:00N 32°05' W 080°59'3 5.9
2018-Feb-21 03:30N 32°05' W 081°03'3 5.5
2018-Feb-21 02:59N 32°06' W 081°06'1 2.8
2018-Feb-21 02:29N 32°07' W 081°07'1 3.1
2018-Feb-21 02:00N 32°08' W 081°08'1 1.1
2018-Feb-21 01:27N 32°08' W 081°09'0 0.0
2018-Feb-21 00:57N 32°08' W 081°09'0 0.0
2018-Feb-21 00:27N 32°08' W 081°09'0 0.0
2018-Feb-20 23:57N 32°08' W 081°09'0 0.0
2018-Feb-20 23:27N 32°08' W 081°09'0 0.0
2018-Feb-20 22:57N 32°08' W 081°09'0 0.0
2018-Feb-20 22:15N 32°08' W 081°09'0 0.0
2018-Feb-20 21:57N 32°08' W 081°09'0 0.0
2018-Feb-20 21:27N 32°08' W 081°09'0 0.0
2018-Feb-20 20:57N 32°08' W 081°09'0 0.0
2018-Feb-20 20:27N 32°08' W 081°09'0 0.0
2018-Feb-20 19:57N 32°08' W 081°09'0 0.0
2018-Feb-20 19:27N 32°08' W 081°09'0 0.0
2018-Feb-20 18:57N 32°08' W 081°09'0 0.0
2018-Feb-20 18:21N 32°08' W 081°09'0 0.0
2018-Feb-20 17:57N 32°08' W 081°09'0 0.0
2018-Feb-20 17:27N 32°08' W 081°09'0 0.0
2018-Feb-20 16:57N 32°08' W 081°09'0 0.0
2018-Feb-20 16:27N 32°08' W 081°09'0 0.0
2018-Feb-20 15:57N 32°08' W 081°09'0 0.0
2018-Feb-20 15:27N 32°08' W 081°09'0 0.0
2018-Feb-20 14:57N 32°08' W 081°09'0 0.0
2018-Feb-20 14:26N 32°08' W 081°09'0 0.0
2018-Feb-20 13:57N 32°08' W 081°09'0 0.0
2018-Feb-20 13:27N 32°08' W 081°09'0 0.0
2018-Feb-20 12:57N 32°08' W 081°09'0 0.0
2018-Feb-20 12:27N 32°08' W 081°09'0 0.0
2018-Feb-20 11:45N 32°08' W 081°09'0 0.0
2018-Feb-20 11:27N 32°08' W 081°09'0 0.0
2018-Feb-20 10:57N 32°08' W 081°09'0 0.0
2018-Feb-20 10:27N 32°08' W 081°09'0 0.0
2018-Feb-20 09:51N 32°08' W 081°09'0 0.0
2018-Feb-20 09:27N 32°08' W 081°09'0 0.0
2018-Feb-20 08:57N 32°08' W 081°09'0 0.0
2018-Feb-20 08:15N 32°08' W 081°09'0 0.0
2018-Feb-20 07:57N 32°08' W 081°09'0 0.0
2018-Feb-20 07:27N 32°08' W 081°09'0 0.0
2018-Feb-20 06:57N 32°08' W 081°09'0 0.0
2018-Feb-20 06:27N 32°08' W 081°09'0 0.0
2018-Feb-20 05:57N 32°08' W 081°09'0 0.0
2018-Feb-20 05:27N 32°08' W 081°09'0 0.0
2018-Feb-20 04:57N 32°08' W 081°09'0 0.0
2018-Feb-20 04:21N 32°08' W 081°09'0 0.0
2018-Feb-20 03:57N 32°08' W 081°09'0 0.0
2018-Feb-20 03:27N 32°08' W 081°09'0 0.0
2018-Feb-20 02:57N 32°08' W 081°09'0 0.0
2018-Feb-20 02:30N 32°08' W 081°09'1 1.2
2018-Feb-20 02:00N 32°08' W 081°08'3 5.3
2018-Feb-20 01:30N 32°06' W 081°06'4 7.2
2018-Feb-20 01:00N 32°05' W 081°02'5 9.1
2018-Feb-20 00:30N 32°04' W 080°57'612.3
2018-Feb-20 00:00N 32°02' W 080°50'815.1
2018-Feb-19 23:30N 31°58' W 080°43'510.5
2018-Feb-19 23:00N 31°56' W 080°37'510.4
2018-Feb-19 22:30N 31°56' W 080°31'510.1
2018-Feb-19 22:00N 31°56' W 080°25'510.3
2018-Feb-19 21:30N 31°56' W 080°19'8 7.1
2018-Feb-19 20:23N 31°54' W 080°10'0 0.6
2018-Feb-19 19:42N 31°54' W 080°10'0 0.6
2018-Feb-19 19:10N 31°54' W 080°10'0 2.2
2018-Feb-19 19:00N 31°54' W 080°10'1 0.6
2018-Feb-19 17:15N 31°55' W 080°10'0 0.8
2018-Feb-19 16:48N 31°55' W 080°10'226 9.5
2018-Feb-18 17:00N 33°48' W 076°18'180 8.2 020 / 211027.010.8 14.010.211.0
2018-Feb-17 18:58N 36°45' W 075°40'710.3
2018-Feb-17 18:19N 36°49' W 075°47'510.4
2018-Feb-17 17:51N 36°51' W 075°52'410.4
2018-Feb-17 17:30N 36°54' W 075°55'5 9.8
2018-Feb-17 17:00N 36°57' W 076°00'612.6
2018-Feb-17 16:30N 36°59' W 076°07'814.6
2018-Feb-17 15:56N 36°60' W 076°18'4 9.2
2018-Feb-17 15:30N 36°56' W 076°20'1 1.8
2018-Feb-17 15:00N 36°56' W 076°20'0 0.0
2018-Feb-17 14:30N 36°56' W 076°20'0 0.0
2018-Feb-17 14:00N 36°56' W 076°20'0 0.0
2018-Feb-17 13:30N 36°56' W 076°20'0 0.0
2018-Feb-17 12:57N 36°56' W 076°20'0 0.0
2018-Feb-17 12:30N 36°56' W 076°20'0 0.0
2018-Feb-17 12:00N 36°56' W 076°20'0 0.0
2018-Feb-17 11:30N 36°56' W 076°20'0 0.0
2018-Feb-17 11:00N 36°56' W 076°20'0 0.0
2018-Feb-17 10:30N 36°56' W 076°20'0 0.0
2018-Feb-17 09:57N 36°56' W 076°20'0 0.0
2018-Feb-17 09:21N 36°56' W 076°20'0 0.0
2018-Feb-17 09:00N 36°56' W 076°20'0 0.0
2018-Feb-17 08:27N 36°56' W 076°20'0 0.0
2018-Feb-17 08:00N 36°56' W 076°20'0 0.0
2018-Feb-17 07:27N 36°56' W 076°20'0 0.0
2018-Feb-17 06:51N 36°56' W 076°20'0 0.0
2018-Feb-17 06:27N 36°56' W 076°20'0 0.0
2018-Feb-17 05:33N 36°56' W 076°20'0 0.0
2018-Feb-17 05:27N 36°56' W 076°20'0 0.0
2018-Feb-17 04:54N 36°56' W 076°20'0 0.0
2018-Feb-17 02:33N 36°56' W 076°20'0 0.0
2018-Feb-17 02:27N 36°56' W 076°20'0 0.0
2018-Feb-17 01:48N 36°56' W 076°20'0 0.0
2018-Feb-17 01:21N 36°56' W 076°20'0 0.0
2018-Feb-17 00:57N 36°56' W 076°20'0 0.0
2018-Feb-17 00:30N 36°56' W 076°20'0 0.0
2018-Feb-16 23:57N 36°56' W 076°20'0 0.0
2018-Feb-16 23:27N 36°56' W 076°20'0 0.0
2018-Feb-16 22:57N 36°56' W 076°20'0 0.3
2018-Feb-16 22:29N 36°56' W 076°20'2 4.1
2018-Feb-16 22:00N 36°58' W 076°20'4 8.9
2018-Feb-16 21:30N 37°00' W 076°16'714.4
2018-Feb-16 21:00N 36°59' W 076°07'713.3
2018-Feb-16 20:30N 36°57' W 075°59'4 8.9
2018-Feb-16 20:00N 36°55' W 075°54'3 6.7
2018-Feb-16 19:30N 36°52' W 075°51'3 6.6
2018-Feb-16 19:00N 36°51' W 075°48'4 8.5
2018-Feb-16 18:30N 36°49' W 075°43'22614.5
2018-Feb-16 02:57N 40°17' W 073°49'5 9.8
2018-Feb-16 02:29N 40°21' W 073°49'5 9.9
2018-Feb-16 02:00N 40°26' W 073°49'4 7.7
2018-Feb-16 01:30N 40°28' W 073°53'611.3
2018-Feb-16 01:01N 40°31' W 073°59'713.5
2018-Feb-16 00:30N 40°37' W 074°03'3 5.5
2018-Feb-16 00:00N 40°40' W 074°04'1 2.2
2018-Feb-15 23:28N 40°40' W 074°05'0 0.0
2018-Feb-15 22:58N 40°40' W 074°05'0 0.0
2018-Feb-15 22:28N 40°40' W 074°05'0 0.0
2018-Feb-15 21:58N 40°40' W 074°05'0 0.0
2018-Feb-15 21:28N 40°40' W 074°05'0 0.0
2018-Feb-15 20:58N 40°40' W 074°05'0 0.0
2018-Feb-15 20:28N 40°40' W 074°05'0 0.0
2018-Feb-15 19:58N 40°40' W 074°05'0 0.0
2018-Feb-15 19:25N 40°40' W 074°05'0 0.0
2018-Feb-15 18:58N 40°40' W 074°05'0 0.0
2018-Feb-15 18:28N 40°40' W 074°05'0 0.0
2018-Feb-15 17:58N 40°40' W 074°05'0 0.0
2018-Feb-15 17:28N 40°40' W 074°05'0 0.0
2018-Feb-15 16:58N 40°40' W 074°05'0 0.0
2018-Feb-15 16:28N 40°40' W 074°05'0 0.0
2018-Feb-15 15:58N 40°40' W 074°05'0 0.0
2018-Feb-15 15:28N 40°40' W 074°05'0 0.0
2018-Feb-15 14:58N 40°40' W 074°05'0 0.0
2018-Feb-15 14:28N 40°40' W 074°05'0 0.0
2018-Feb-15 13:58N 40°40' W 074°05'0 0.0
2018-Feb-15 13:28N 40°40' W 074°05'0 0.0
2018-Feb-15 12:58N 40°40' W 074°05'0 0.0
2018-Feb-15 12:28N 40°40' W 074°05'0 0.0
2018-Feb-15 11:58N 40°40' W 074°05'0 0.0
2018-Feb-15 11:28N 40°40' W 074°05'0 0.0
2018-Feb-15 10:58N 40°40' W 074°05'0 0.0
2018-Feb-15 10:28N 40°40' W 074°05'0 0.0
2018-Feb-15 09:58N 40°40' W 074°05'0 0.0
2018-Feb-15 09:28N 40°40' W 074°05'0 0.0
2018-Feb-15 08:58N 40°40' W 074°05'0 0.0
2018-Feb-15 08:28N 40°40' W 074°05'0 0.0
2018-Feb-15 07:58N 40°40' W 074°05'0 0.0
2018-Feb-15 07:28N 40°40' W 074°05'0 0.0
2018-Feb-15 06:58N 40°40' W 074°05'0 0.0
2018-Feb-15 06:28N 40°40' W 074°05'0 0.0
2018-Feb-15 05:58N 40°40' W 074°05'0 0.0
2018-Feb-15 05:28N 40°40' W 074°05'0 0.0
2018-Feb-15 04:58N 40°40' W 074°05'0 0.0
2018-Feb-15 04:28N 40°40' W 074°05'0 0.0
2018-Feb-15 03:58N 40°40' W 074°05'0 0.0
2018-Feb-15 03:28N 40°40' W 074°05'0 0.0
2018-Feb-15 02:58N 40°40' W 074°05'0 0.0
2018-Feb-15 02:25N 40°40' W 074°05'0 0.0
2018-Feb-15 01:55N 40°40' W 074°05'0 0.0
2018-Feb-15 01:28N 40°40' W 074°05'0 0.0
2018-Feb-15 00:58N 40°40' W 074°05'0 0.0
2018-Feb-15 00:25N 40°40' W 074°05'0 0.0
2018-Feb-14 23:55N 40°40' W 074°05'0 0.0
2018-Feb-14 23:28N 40°40' W 074°05'0 0.0
2018-Feb-14 22:58N 40°40' W 074°05'0 0.0
2018-Feb-14 22:28N 40°40' W 074°05'0 0.0
2018-Feb-14 21:58N 40°40' W 074°05'0 0.0
2018-Feb-14 21:28N 40°40' W 074°05'0 0.0
2018-Feb-14 20:58N 40°40' W 074°05'0 0.0
2018-Feb-14 20:28N 40°40' W 074°05'0 0.0
2018-Feb-14 19:58N 40°40' W 074°05'0 0.0
2018-Feb-14 19:28N 40°40' W 074°05'0 0.0
2018-Feb-14 18:58N 40°40' W 074°05'0 0.0
2018-Feb-14 18:28N 40°40' W 074°05'0 0.0
2018-Feb-14 17:58N 40°40' W 074°05'0 0.0
2018-Feb-14 17:28N 40°40' W 074°05'0 0.0
2018-Feb-14 16:58N 40°40' W 074°05'0 0.0
2018-Feb-14 16:28N 40°40' W 074°05'0 0.0
2018-Feb-14 15:58N 40°40' W 074°05'0 0.0
2018-Feb-14 15:28N 40°40' W 074°05'0 0.0
2018-Feb-14 14:58N 40°40' W 074°05'0 0.0
2018-Feb-14 14:25N 40°40' W 074°05'0 0.0
2018-Feb-14 13:58N 40°40' W 074°05'0 0.0
2018-Feb-14 13:28N 40°40' W 074°05'0 0.0
2018-Feb-14 12:58N 40°40' W 074°05'0 0.0
2018-Feb-14 12:28N 40°40' W 074°05'0 0.0
2018-Feb-14 11:58N 40°40' W 074°05'0 0.0
2018-Feb-14 11:28N 40°40' W 074°05'0 0.0
2018-Feb-14 10:58N 40°40' W 074°05'0 0.0
2018-Feb-14 10:28N 40°40' W 074°05'0 0.0
2018-Feb-14 09:58N 40°40' W 074°05'0 0.0
2018-Feb-14 09:28N 40°40' W 074°05'0 0.0
2018-Feb-14 08:58N 40°40' W 074°05'0 0.0
2018-Feb-14 08:28N 40°40' W 074°05'0 0.0
2018-Feb-14 07:58N 40°40' W 074°05'0 0.0
2018-Feb-14 07:28N 40°40' W 074°05'0 0.0
2018-Feb-14 06:58N 40°40' W 074°05'0 0.0
2018-Feb-14 06:28N 40°40' W 074°05'0 0.0
2018-Feb-14 05:58N 40°40' W 074°05'0 0.0
2018-Feb-14 05:28N 40°40' W 074°05'0 0.0
2018-Feb-14 04:58N 40°40' W 074°05'0 0.0
2018-Feb-14 04:28N 40°40' W 074°05'0 0.0
2018-Feb-14 03:58N 40°40' W 074°05'0 0.0
2018-Feb-14 03:28N 40°40' W 074°05'0 0.0
2018-Feb-14 02:58N 40°40' W 074°05'  
Track history (hours):
 
Tides and Currents Weather Stations Pressure Air Temp Water Temp Dewpoint Dewpoint Depression Visibility Wind Speed Wind Dir Waves Ship Positions

MOL Benefactor

Last reported at 2018-Feb-24 02:40 UTC. Time now 2018-Feb-25 11:35 UTC.
Position N 32°50' W 079°54'.

Length 337 m; draft 11.4 m.

Type: Ship (hazmat cat A). MMSI: 477307900.

Date/timePositionNaut miles runAvg speedWind from/ knotsBaromVisibWave heightAir tempDewpointWater temp
2018-Feb-24 02:40N 32°50' W 079°54'69 3.6
2018-Feb-23 07:43N 31°42' W 080°05'22 0.5
2018-Feb-21 07:29N 31°41' W 080°31'1014.7
2018-Feb-21 06:49N 31°51' W 080°29'3 9.5
2018-Feb-21 06:30N 31°53' W 080°31'510.3
2018-Feb-21 06:00N 31°56' W 080°36'5 9.5
2018-Feb-21 05:30N 31°58' W 080°41'611.8
2018-Feb-21 05:00N 32°00' W 080°47'612.4
2018-Feb-21 04:30N 32°02' W 080°54'510.8
2018-Feb-21 04:00N 32°05' W 080°59'3 5.9
2018-Feb-21 03:30N 32°05' W 081°03'3 5.5
2018-Feb-21 02:59N 32°06' W 081°06'1 2.8
2018-Feb-21 02:29N 32°07' W 081°07'1 3.1
2018-Feb-21 02:00N 32°08' W 081°08'1 1.1
2018-Feb-21 01:27N 32°08' W 081°09'0 0.0
2018-Feb-21 00:57N 32°08' W 081°09'0 0.0
2018-Feb-21 00:27N 32°08' W 081°09'0 0.0
2018-Feb-20 23:57N 32°08' W 081°09'0 0.0
2018-Feb-20 23:27N 32°08' W 081°09'0 0.0
2018-Feb-20 22:57N 32°08' W 081°09'0 0.0
2018-Feb-20 22:15N 32°08' W 081°09'0 0.0
2018-Feb-20 21:57N 32°08' W 081°09'0 0.0
2018-Feb-20 21:27N 32°08' W 081°09'0 0.0
2018-Feb-20 20:57N 32°08' W 081°09'0 0.0
2018-Feb-20 20:27N 32°08' W 081°09'0 0.0
2018-Feb-20 19:57N 32°08' W 081°09'0 0.0
2018-Feb-20 19:27N 32°08' W 081°09'0 0.0
2018-Feb-20 18:57N 32°08' W 081°09'0 0.0
2018-Feb-20 18:21N 32°08' W 081°09'0 0.0
2018-Feb-20 17:57N 32°08' W 081°09'0 0.0
2018-Feb-20 17:27N 32°08' W 081°09'0 0.0
2018-Feb-20 16:57N 32°08' W 081°09'0 0.0
2018-Feb-20 16:27N 32°08' W 081°09'0 0.0
2018-Feb-20 15:57N 32°08' W 081°09'0 0.0
2018-Feb-20 15:27N 32°08' W 081°09'0 0.0
2018-Feb-20 14:57N 32°08' W 081°09'0 0.0
2018-Feb-20 14:26N 32°08' W 081°09'0 0.0
2018-Feb-20 13:57N 32°08' W 081°09'0 0.0
2018-Feb-20 13:27N 32°08' W 081°09'0 0.0
2018-Feb-20 12:57N 32°08' W 081°09'0 0.0
2018-Feb-20 12:27N 32°08' W 081°09'0 0.0
2018-Feb-20 11:45N 32°08' W 081°09'0 0.0
2018-Feb-20 11:27N 32°08' W 081°09'0 0.0
2018-Feb-20 10:57N 32°08' W 081°09'0 0.0
2018-Feb-20 10:27N 32°08' W 081°09'0 0.0
2018-Feb-20 09:51N 32°08' W 081°09'0 0.0
2018-Feb-20 09:27N 32°08' W 081°09'0 0.0
2018-Feb-20 08:57N 32°08' W 081°09'0 0.0
2018-Feb-20 08:15N 32°08' W 081°09'0 0.0
2018-Feb-20 07:57N 32°08' W 081°09'0 0.0
2018-Feb-20 07:27N 32°08' W 081°09'0 0.0
2018-Feb-20 06:57N 32°08' W 081°09'0 0.0
2018-Feb-20 06:27N 32°08' W 081°09'0 0.0
2018-Feb-20 05:57N 32°08' W 081°09'0 0.0
2018-Feb-20 05:27N 32°08' W 081°09'0 0.0
2018-Feb-20 04:57N 32°08' W 081°09'0 0.0
2018-Feb-20 04:21N 32°08' W 081°09'0 0.0
2018-Feb-20 03:57N 32°08' W 081°09'0 0.0
2018-Feb-20 03:27N 32°08' W 081°09'0 0.0
2018-Feb-20 02:57N 32°08' W 081°09'0 0.0
2018-Feb-20 02:30N 32°08' W 081°09'1 1.2
2018-Feb-20 02:00N 32°08' W 081°08'3 5.3
2018-Feb-20 01:30N 32°06' W 081°06'4 7.2
2018-Feb-20 01:00N 32°05' W 081°02'5 9.1
2018-Feb-20 00:30N 32°04' W 080°57'612.3
2018-Feb-20 00:00N 32°02' W 080°50'815.1
2018-Feb-19 23:30N 31°58' W 080°43'510.5
2018-Feb-19 23:00N 31°56' W 080°37'510.4
2018-Feb-19 22:30N 31°56' W 080°31'510.1
2018-Feb-19 22:00N 31°56' W 080°25'510.3
2018-Feb-19 21:30N 31°56' W 080°19'8 7.1
2018-Feb-19 20:23N 31°54' W 080°10'0 0.6
2018-Feb-19 19:42N 31°54' W 080°10'0 0.6
2018-Feb-19 19:10N 31°54' W 080°10'0 2.2
2018-Feb-19 19:00N 31°54' W 080°10'1 0.6
2018-Feb-19 17:15N 31°55' W 080°10'0 0.8
2018-Feb-19 16:48N 31°55' W 080°10'226 9.5
2018-Feb-18 17:00N 33°48' W 076°18'180 8.2 020 / 211027.010.8 14.010.211.0
2018-Feb-17 18:58N 36°45' W 075°40'710.3
2018-Feb-17 18:19N 36°49' W 075°47'510.4
2018-Feb-17 17:51N 36°51' W 075°52'410.4
2018-Feb-17 17:30N 36°54' W 075°55'5 9.8
2018-Feb-17 17:00N 36°57' W 076°00'612.6
2018-Feb-17 16:30N 36°59' W 076°07'814.6
2018-Feb-17 15:56N 36°60' W 076°18'4 9.2
2018-Feb-17 15:30N 36°56' W 076°20'1 1.8
2018-Feb-17 15:00N 36°56' W 076°20'0 0.0
2018-Feb-17 14:30N 36°56' W 076°20'0 0.0
2018-Feb-17 14:00N 36°56' W 076°20'0 0.0
2018-Feb-17 13:30N 36°56' W 076°20'0 0.0
2018-Feb-17 12:57N 36°56' W 076°20'0 0.0
2018-Feb-17 12:30N 36°56' W 076°20'0 0.0
2018-Feb-17 12:00N 36°56' W 076°20'0 0.0
2018-Feb-17 11:30N 36°56' W 076°20'0 0.0
2018-Feb-17 11:00N 36°56' W 076°20'0 0.0
2018-Feb-17 10:30N 36°56' W 076°20'0 0.0
2018-Feb-17 09:57N 36°56' W 076°20'0 0.0
2018-Feb-17 09:21N 36°56' W 076°20'0 0.0
2018-Feb-17 09:00N 36°56' W 076°20'0 0.0
2018-Feb-17 08:27N 36°56' W 076°20'0 0.0
2018-Feb-17 08:00N 36°56' W 076°20'0 0.0
2018-Feb-17 07:27N 36°56' W 076°20'0 0.0
2018-Feb-17 06:51N 36°56' W 076°20'0 0.0
2018-Feb-17 06:27N 36°56' W 076°20'0 0.0
2018-Feb-17 05:33N 36°56' W 076°20'0 0.0
2018-Feb-17 05:27N 36°56' W 076°20'0 0.0
2018-Feb-17 04:54N 36°56' W 076°20'0 0.0
2018-Feb-17 02:33N 36°56' W 076°20'0 0.0
2018-Feb-17 02:27N 36°56' W 076°20'0 0.0
2018-Feb-17 01:48N 36°56' W 076°20'0 0.0
2018-Feb-17 01:21N 36°56' W 076°20'0 0.0
2018-Feb-17 00:57N 36°56' W 076°20'0 0.0
2018-Feb-17 00:30N 36°56' W 076°20'0 0.0
2018-Feb-16 23:57N 36°56' W 076°20'0 0.0
2018-Feb-16 23:27N 36°56' W 076°20'0 0.0
2018-Feb-16 22:57N 36°56' W 076°20'0 0.3
2018-Feb-16 22:29N 36°56' W 076°20'2 4.1
2018-Feb-16 22:00N 36°58' W 076°20'4 8.9
2018-Feb-16 21:30N 37°00' W 076°16'714.4
2018-Feb-16 21:00N 36°59' W 076°07'713.3
2018-Feb-16 20:30N 36°57' W 075°59'4 8.9
2018-Feb-16 20:00N 36°55' W 075°54'3 6.7
2018-Feb-16 19:30N 36°52' W 075°51'3 6.6
2018-Feb-16 19:00N 36°51' W 075°48'4 8.5
2018-Feb-16 18:30N 36°49' W 075°43'22614.5
2018-Feb-16 02:57N 40°17' W 073°49'5 9.8
2018-Feb-16 02:29N 40°21' W 073°49'5 9.9
2018-Feb-16 02:00N 40°26' W 073°49'4 7.7
2018-Feb-16 01:30N 40°28' W 073°53'611.3
2018-Feb-16 01:01N 40°31' W 073°59'713.5
2018-Feb-16 00:30N 40°37' W 074°03'3 5.5
2018-Feb-16 00:00N 40°40' W 074°04'1 2.2
2018-Feb-15 23:28N 40°40' W 074°05'0 0.0
2018-Feb-15 22:58N 40°40' W 074°05'0 0.0
2018-Feb-15 22:28N 40°40' W 074°05'0 0.0
2018-Feb-15 21:58N 40°40' W 074°05'0 0.0
2018-Feb-15 21:28N 40°40' W 074°05'0 0.0
2018-Feb-15 20:58N 40°40' W 074°05'0 0.0
2018-Feb-15 20:28N 40°40' W 074°05'0 0.0
2018-Feb-15 19:58N 40°40' W 074°05'0 0.0
2018-Feb-15 19:25N 40°40' W 074°05'0 0.0
2018-Feb-15 18:58N 40°40' W 074°05'0 0.0
2018-Feb-15 18:28N 40°40' W 074°05'0 0.0
2018-Feb-15 17:58N 40°40' W 074°05'0 0.0
2018-Feb-15 17:28N 40°40' W 074°05'0 0.0
2018-Feb-15 16:58N 40°40' W 074°05'0 0.0
2018-Feb-15 16:28N 40°40' W 074°05'0 0.0
2018-Feb-15 15:58N 40°40' W 074°05'0 0.0
2018-Feb-15 15:28N 40°40' W 074°05'0 0.0
2018-Feb-15 14:58N 40°40' W 074°05'0 0.0
2018-Feb-15 14:28N 40°40' W 074°05'0 0.0
2018-Feb-15 13:58N 40°40' W 074°05'0 0.0
2018-Feb-15 13:28N 40°40' W 074°05'0 0.0
2018-Feb-15 12:58N 40°40' W 074°05'0 0.0
2018-Feb-15 12:28N 40°40' W 074°05'0 0.0
2018-Feb-15 11:58N 40°40' W 074°05'0 0.0
2018-Feb-15 11:28N 40°40' W 074°05'0 0.0
2018-Feb-15 10:58N 40°40' W 074°05'0 0.0
2018-Feb-15 10:28N 40°40' W 074°05'0 0.0
2018-Feb-15 09:58N 40°40' W 074°05'0 0.0
2018-Feb-15 09:28N 40°40' W 074°05'0 0.0
2018-Feb-15 08:58N 40°40' W 074°05'0 0.0
2018-Feb-15 08:28N 40°40' W 074°05'0 0.0
2018-Feb-15 07:58N 40°40' W 074°05'0 0.0
2018-Feb-15 07:28N 40°40' W 074°05'0 0.0
2018-Feb-15 06:58N 40°40' W 074°05'0 0.0
2018-Feb-15 06:28N 40°40' W 074°05'0 0.0
2018-Feb-15 05:58N 40°40' W 074°05'0 0.0
2018-Feb-15 05:28N 40°40' W 074°05'0 0.0
2018-Feb-15 04:58N 40°40' W 074°05'0 0.0
2018-Feb-15 04:28N 40°40' W 074°05'0 0.0
2018-Feb-15 03:58N 40°40' W 074°05'0 0.0
2018-Feb-15 03:28N 40°40' W 074°05'0 0.0
2018-Feb-15 02:58N 40°40' W 074°05'0 0.0
2018-Feb-15 02:25N 40°40' W 074°05'0 0.0
2018-Feb-15 01:55N 40°40' W 074°05'0 0.0
2018-Feb-15 01:28N 40°40' W 074°05'0 0.0
2018-Feb-15 00:58N 40°40' W 074°05'0 0.0
2018-Feb-15 00:25N 40°40' W 074°05'0 0.0
2018-Feb-14 23:55N 40°40' W 074°05'0 0.0
2018-Feb-14 23:28N 40°40' W 074°05'0 0.0
2018-Feb-14 22:58N 40°40' W 074°05'0 0.0
2018-Feb-14 22:28N 40°40' W 074°05'0 0.0
2018-Feb-14 21:58N 40°40' W 074°05'0 0.0
2018-Feb-14 21:28N 40°40' W 074°05'0 0.0
2018-Feb-14 20:58N 40°40' W 074°05'0 0.0
2018-Feb-14 20:28N 40°40' W 074°05'0 0.0
2018-Feb-14 19:58N 40°40' W 074°05'0 0.0
2018-Feb-14 19:28N 40°40' W 074°05'0 0.0
2018-Feb-14 18:58N 40°40' W 074°05'0 0.0
2018-Feb-14 18:28N 40°40' W 074°05'0 0.0
2018-Feb-14 17:58N 40°40' W 074°05'0 0.0
2018-Feb-14 17:28N 40°40' W 074°05'0 0.0
2018-Feb-14 16:58N 40°40' W 074°05'0 0.0
2018-Feb-14 16:28N 40°40' W 074°05'0 0.0
2018-Feb-14 15:58N 40°40' W 074°05'0 0.0
2018-Feb-14 15:28N 40°40' W 074°05'0 0.0
2018-Feb-14 14:58N 40°40' W 074°05'0 0.0
2018-Feb-14 14:25N 40°40' W 074°05'0 0.0
2018-Feb-14 13:58N 40°40' W 074°05'0 0.0
2018-Feb-14 13:28N 40°40' W 074°05'0 0.0
2018-Feb-14 12:58N 40°40' W 074°05'0 0.0
2018-Feb-14 12:28N 40°40' W 074°05'0 0.0
2018-Feb-14 11:58N 40°40' W 074°05'0 0.0
2018-Feb-14 11:28N 40°40' W 074°05'0 0.0
2018-Feb-14 10:58N 40°40' W 074°05'0 0.0
2018-Feb-14 10:28N 40°40' W 074°05'0 0.0
2018-Feb-14 09:58N 40°40' W 074°05'0 0.0
2018-Feb-14 09:28N 40°40' W 074°05'0 0.0
2018-Feb-14 08:58N 40°40' W 074°05'0 0.0
2018-Feb-14 08:28N 40°40' W 074°05'0 0.0
2018-Feb-14 07:58N 40°40' W 074°05'0 0.0
2018-Feb-14 07:28N 40°40' W 074°05'0 0.0
2018-Feb-14 06:58N 40°40' W 074°05'0 0.0
2018-Feb-14 06:28N 40°40' W 074°05'0 0.0
2018-Feb-14 05:58N 40°40' W 074°05'0 0.0
2018-Feb-14 05:28N 40°40' W 074°05'0 0.0
2018-Feb-14 04:58N 40°40' W 074°05'0 0.0
2018-Feb-14 04:28N 40°40' W 074°05'0 0.0
2018-Feb-14 03:58N 40°40' W 074°05'0 0.0
2018-Feb-14 03:28N 40°40' W 074°05'0 0.0
2018-Feb-14 02:58N 40°40' W 074°05'  

Dump ship's entire track history